AirNav   Pilot Hours Calculator
 
 1251 users online  

96C Fox River Airport
Rochester, Wisconsin, USA

GOING TO ROCHESTER?


FAA INFORMATION EFFECTIVE 25 FEBRUARY 2021

Location

FAA Identifier: 96C
Lat/Long: 42-45-00.0590N 088-15-03.3260W
42-45.000983N 088-15.055433W
42.7500164,-88.2509239
(estimated)
Elevation: 822 ft. / 251 m (estimated)
Variation: 01W (1985)
From city: 2 miles NW of ROCHESTER, WI
Time zone: UTC -6 (UTC -5 during Daylight Saving Time)
Zip code: 53105

Airport Operations

Airport use: Open to the public
Activation date: 10/1970
Control tower: no
ARTCC: CHICAGO CENTER
FSS: GREEN BAY FLIGHT SERVICE STATION
NOTAMs facility: GRB (NOTAM-D service available)
Attendance: MON-FRI 0600-1630
Wind indicator: yes
Segmented circle: no

Airport Communications

CTAF: 122.9
WX AWOS-3 at BUU (4 nm SW): 125.275 (262-757-0907)
WX AWOS-3PT at 57C (6 nm NW): 118.125 (262-642-1845)
WX ASOS at ENW (17 nm SE): PHONE 262-652-7730
WX AWOS-3 at UES (17 nm N): 118.875 (262-521-5226)
WX ASOS at RAC (19 nm E): 121.425 (262-635-0959)
WX ASOS at MKE (20 nm NE): 126.4 (414-489-2168)

Nearby radio navigation aids

VOR radial/distance  VOR name  Freq  Var
BAEr174/22.1BADGER VOR/DME116.4002E
OBKr339/34.4NORTHBROOK VOR/DME113.0002W
JVLr070/39.4JANESVILLE VOR/DME114.3003E

 
NDB name  Hdg/Dist  Freq  Var  ID
ROCK RIVER142/32.937101WRYV .-. -.-- ...-

Airport Services

Parking: tiedowns

Runway Information

Runway 1/19

Dimensions: 2500 x 36 ft. / 762 x 11 m
RWY ASPH IS 10-15'WIDER LAST 300'EA END.
Surface: asphalt, in fair condition
RUNWAY 1  RUNWAY 19
Latitude: 42-44.850833N42-45.262667N
Longitude: 088-15.005333W088-15.039667W
Elevation: 822.0 ft.822.0 ft.
Traffic pattern: leftleft
Markings: basic, in fair conditionbasic, in fair condition
Runway end identifier lights: nono
Obstructions: 62 ft. trees, 500 ft. from runway, 150 ft. right of centerline, 4:1 slope to clear60 ft. tree, 1700 ft. from runway, 125 ft. left of centerline, 25:1 slope to clear

Airport Ownership and Management from official FAA records

Ownership: Privately-owned
Owner: JERRY KAY MEHLHAFF JR.
PO BOX 37
ROCHESTER, WI 53167
Phone 262-534-6315
Manager: JERRY KAY MEHLHAFF JR.
PO BOX 37
ROCHESTER, WI 53167
Phone 262-534-6315

Airport Operational Statistics

Aircraft operations: avg 96/week *
50% transient general aviation
50% local general aviation
* for 12-month period ending 19 July 2018

Additional Remarks

FOR CD CTC CHICAGO ARTCC AT 630-906-8921.
A103 ACFT MANUFACTURED & FLIGHT TESTED AT ARPT.

Instrument Procedures

There are no published instrument procedures at 96C.

Some nearby airports with instrument procedures:

KBUU - Burlington Municipal Airport (4 nm SW)
57C - East Troy Municipal Airport (6 nm NW)
C02 - Grand Geneva Resort Airport (10 nm SW)
KENW - Kenosha Regional Airport (17 nm SE)
KUES - Waukesha County Airport (17 nm N)
KRAC - Batten International Airport (19 nm E)
KMKE - General Mitchell International Airport (20 nm NE)
 
Loc | Ops | Rwys | IFR | FBO | Links
Com | Nav | Svcs | Stats | Notes
Area around 96C (Fox River Airport)
 
Road maps at: MapQuest Bing Google
 
Aerial photo
WARNING: Photo may not be current or correct
Aerial photo of 96C (Fox River Airport)
Photo by Jeff Koon
Photo taken 22-Aug-2010
looking East.

Do you have a better or more recent aerial photo of Fox River Airport that you would like to share? If so, please send us your photo.

 
Sectional chart

 
Airport distance calculator
Flying to Fox River Airport? Find the distance to fly.

From to 96C

Sunrise and sunset
Times for 08-Mar-2021
 Local
(UTC-6)
 Zulu
(UTC)
Morning civil twilight05:5011:50
Sunrise06:1812:18
Sunset17:5023:50
Evening civil twilight18:1800:18

Current date and time
Zulu (UTC)  08-Mar-2021 14:17:50
Local (UTC-6)  08-Mar-2021 08:17:50
 
METAR
KBUU 
5nm SW 
081355Z AUTO 22010KT 10SM 07/00 A3021 RMK AO2 T00650002 PWINO
K57C 
6nm NW 
081355Z AUTO 26008KT 10SM CLR 07/00 A3020 RMK AO2 T00730000
KENW 
17nm SE 
081353Z 24013KT 10SM CLR 08/01 A3021 RMK AO2 SLP236 T00830006
KUES 
17nm N 
081345Z 22008KT 10SM CLR 07/M01 A3020
KRAC 
19nm E 
081353Z AUTO 24012G21KT 10SM CLR 08/01 A3021 RMK AO2 SLP234 T00830006
KMKE 
20nm NE 
081352Z 25013G21KT 10SM FEW250 09/00 A3019 RMK AO2 SLP227 T00890000
TAF
KENW 
17nm SE 
081130Z 0812/0912 21011KT P6SM SCT080 WS020/26040KT FM081400 24012G20KT P6SM SCT080 FM082100 26011KT P6SM SKC FM090000 00000KT P6SM SKC FM090700 00000KT 3SM BR FEW010
KUES 
17nm N 
081130Z 0812/0912 20010KT P6SM FEW250 WS020/27040KT FM081400 24009KT P6SM FEW250 FM081800 27011KT P6SM SKC FM090000 00000KT P6SM SKC FM090700 00000KT 3SM BR FEW009
KMKE 
20nm NE 
081130Z 0812/0918 22015KT P6SM SCT090 WS020/26040KT FM081400 24011G19KT P6SM FEW250 FM081800 27011KT P6SM SKC FM090000 00000KT P6SM SKC FM090800 00000KT 5SM BR FEW010 FM091200 16004KT P6SM SCT025
NOTAMs
Click for the latest NOTAMs
NOTAMs are issued by the DoD/FAA and will open in a separate window not controlled by AirNav.

 

 
 

Would you like to see your business listed on this page?

 If your business provides an interesting product or service to pilots, flight crews, aircraft, or users of the Fox River Airport, you should consider listing it here.  To start the listing process, click on the button below
 
Add a business
 

Other Pages about Fox River Airport

Page from the Wisconsin airport directory (PDF)
 
Update a link
 
Copyright © AirNav, LLC. All rights reserved. Privacy Policy  Contact